createdAt,value
2022-10-05T00:00:00.646Z,8.07
2022-10-05T00:10:14.784Z,8.57
2022-10-05T00:20:23.740Z,6.05
2022-10-05T00:30:31.916Z,11.37
2022-10-05T00:40:46.571Z,14.07
2022-10-05T00:51:09.320Z,6.13
2022-10-05T01:01:16.104Z,7.80
2022-10-05T01:11:26.556Z,8.60
2022-10-05T01:21:36.837Z,8.25
2022-10-05T01:31:49.515Z,8.68
2022-10-05T01:42:00.885Z,8.20
2022-10-05T01:52:14.871Z,5.93
2022-10-05T02:02:19.780Z,8.95
2022-10-05T02:12:28.213Z,9.30
2022-10-05T02:22:35.868Z,7.18
2022-10-05T02:32:45.189Z,7.82
2022-10-05T02:42:57.426Z,8.13
2022-10-05T02:53:12.439Z,9.43
2022-10-05T03:03:24.348Z,9.38
2022-10-05T03:13:35.360Z,11.77
2022-10-05T03:23:50.750Z,9.43
2022-10-05T03:34:00.540Z,11.25
2022-10-05T03:44:18.572Z,9.55
2022-10-05T03:54:29.947Z,9.57
2022-10-05T04:04:35.899Z,12.35
2022-10-05T04:14:45.719Z,12.20
2022-10-05T04:24:53.035Z,10.02
2022-10-05T04:35:09.202Z,9.35
2022-10-05T04:45:20.892Z,8.73
2022-10-05T04:55:32.678Z,9.32
2022-10-05T05:06:15.443Z,9.70
2022-10-05T05:16:26.247Z,8.63
2022-10-05T05:26:38.859Z,8.95
2022-10-05T05:36:53.969Z,17.58
2022-10-05T05:47:04.573Z,11.63
2022-10-05T05:57:14.095Z,10.68
2022-10-05T06:07:20.822Z,10.67
2022-10-05T06:17:29.989Z,14.25
2022-10-05T06:27:37.740Z,14.57
2022-10-05T06:38:08.752Z,11.93
2022-10-05T06:48:20.971Z,14.05
2022-10-05T06:58:40.656Z,14.73
2022-10-05T07:09:14.187Z,12.20
2022-10-05T07:19:32.183Z,14.10
2022-10-05T07:29:44.069Z,14.73
2022-10-05T07:40:01.222Z,11.00
2022-10-05T07:50:17.523Z,12.05
2022-10-05T08:00:23.789Z,11.48
2022-10-05T08:10:33.897Z,10.60
2022-10-05T08:20:43.379Z,11.68
2022-10-05T08:31:09.001Z,13.02
2022-10-05T08:41:43.597Z,11.93
2022-10-05T08:52:07.711Z,9.45
2022-10-05T09:02:22.943Z,8.10
2022-10-05T09:12:47.642Z,9.38
2022-10-05T09:23:09.861Z,6.72
2022-10-05T09:33:53.959Z,8.00
2022-10-05T09:44:28.096Z,7.97
2022-10-05T09:55:06.539Z,6.60
2022-10-05T10:05:32.712Z,5.70
2022-10-05T10:16:09.670Z,7.18
2022-10-05T10:27:00.920Z,7.55
2022-10-05T10:37:34.386Z,4.22
2022-10-05T10:47:48.108Z,4.05
2022-10-05T10:58:16.035Z,5.82
2022-10-05T11:08:55.070Z,4.65
2022-10-05T11:19:40.561Z,4.63
2022-10-05T11:30:13.477Z,7.97
2022-10-05T11:40:34.185Z,5.05
2022-10-05T11:50:43.307Z,6.10
2022-10-05T12:00:55.193Z,6.63
2022-10-05T12:11:09.636Z,5.75
2022-10-05T12:21:18.471Z,5.20
2022-10-05T12:31:30.526Z,10.63
2022-10-05T12:41:37.126Z,6.65
2022-10-05T12:51:46.003Z,6.10
2022-10-05T13:01:59.747Z,5.67
2022-10-05T13:12:10.253Z,7.05
2022-10-05T13:22:27.067Z,4.32
2022-10-05T13:32:36.510Z,4.07
2022-10-05T13:42:48.184Z,4.60
2022-10-05T13:52:57.475Z,4.20
2022-10-05T14:13:20.393Z,6.90
2022-10-05T14:23:27.196Z,6.32
2022-10-05T14:33:32.745Z,6.43
2022-10-05T14:43:35.778Z,7.47
2022-10-05T14:53:41.718Z,5.53
2022-10-05T15:03:49.682Z,7.97
2022-10-05T15:13:54.473Z,5.88
2022-10-05T15:24:01.147Z,8.32
2022-10-05T15:34:11.376Z,3.38
2022-10-05T15:44:22.895Z,5.40
2022-10-05T15:54:43.974Z,4.38
2022-10-05T16:04:53.132Z,6.50
2022-10-05T16:15:06.492Z,14.35
2022-10-05T16:25:18.724Z,5.20
2022-10-05T16:35:33.189Z,6.68
2022-10-05T16:45:52.941Z,5.47
2022-10-05T16:56:02.778Z,9.45
2022-10-05T17:06:38.109Z,7.38
2022-10-05T17:16:54.419Z,5.22
2022-10-05T17:27:03.438Z,6.90
2022-10-05T17:37:36.144Z,6.33
2022-10-05T17:47:57.771Z,4.32
2022-10-05T17:58:41.556Z,4.80
2022-10-05T18:08:44.574Z,4.10
2022-10-05T18:18:59.133Z,4.28
2022-10-05T18:29:37.013Z,5.93
2022-10-05T18:39:57.248Z,9.98
2022-10-05T18:50:14.783Z,4.57
2022-10-05T19:00:21.281Z,4.85
2022-10-05T19:10:29.340Z,5.03
2022-10-05T19:20:37.820Z,4.05
2022-10-05T19:30:54.838Z,3.37
2022-10-05T19:41:06.780Z,6.00
2022-10-05T19:51:15.912Z,5.68
2022-10-05T20:01:30.644Z,6.32
2022-10-05T20:11:34.947Z,2.90
2022-10-05T20:21:47.853Z,3.92
2022-10-05T20:31:50.661Z,6.35
2022-10-05T20:41:54.809Z,5.95
2022-10-05T20:51:57.893Z,7.18
2022-10-05T21:02:02.363Z,2.75
2022-10-05T21:12:05.152Z,2.58
2022-10-05T21:22:10.356Z,1.98
2022-10-05T21:32:13.077Z,1.92
2022-10-05T21:42:17.081Z,1.48
2022-10-05T21:52:19.784Z,1.67
2022-10-05T22:02:23.935Z,1.92
2022-10-05T22:12:26.722Z,0.93
2022-10-05T22:22:30.989Z,0.30
2022-10-05T22:32:33.666Z,1.27
2022-10-05T22:42:38.820Z,2.72
2022-10-05T22:52:42.336Z,1.20
2022-10-05T23:02:46.424Z,4.30
2022-10-05T23:13:00.372Z,1.85
2022-10-05T23:23:04.925Z,4.13
2022-10-05T23:33:07.623Z,2.47
2022-10-05T23:43:11.627Z,3.92
2022-10-05T23:53:14.676Z,6.60
